createdAt,value
2018-11-12T00:00:30.028Z,0
2018-11-12T00:03:58.022Z,0
2018-11-12T00:07:27.006Z,0
2018-11-12T00:10:55.002Z,0
2018-11-12T00:14:22.973Z,0
2018-11-12T00:17:50.964Z,0
2018-11-12T00:21:18.954Z,0
2018-11-12T00:24:46.924Z,0
2018-11-12T00:28:14.908Z,0
2018-11-12T00:31:42.897Z,0
2018-11-12T00:35:10.888Z,0
2018-11-12T00:38:38.868Z,0
2018-11-12T00:42:06.852Z,0
2018-11-12T00:45:34.842Z,0
2018-11-12T00:49:09.447Z,0
2018-11-12T00:52:37.414Z,0
2018-11-12T00:56:05.389Z,0
2018-11-12T00:59:33.343Z,0
2018-11-12T01:03:01.309Z,0
2018-11-12T01:06:29.288Z,0
2018-11-12T01:09:58.234Z,0
2018-11-12T01:13:26.204Z,0
2018-11-12T01:16:54.176Z,0
2018-11-12T01:20:22.145Z,0
2018-11-12T01:23:50.099Z,0
2018-11-12T01:27:18.068Z,0
2018-11-12T01:30:46.029Z,0
2018-11-12T01:34:14.012Z,0
2018-11-12T01:37:41.959Z,0
2018-11-12T01:41:10.931Z,0
2018-11-12T01:44:38.899Z,0
2018-11-12T01:48:06.860Z,0
2018-11-12T01:51:34.834Z,0
2018-11-12T01:55:02.797Z,0
2018-11-12T01:58:30.754Z,0
2018-11-12T02:01:58.719Z,0
2018-11-12T02:05:26.695Z,0
2018-11-12T02:08:54.751Z,0
2018-11-12T02:12:23.607Z,0
2018-11-12T02:15:51.587Z,0
2018-11-12T02:19:19.536Z,0
2018-11-12T02:22:47.516Z,0
2018-11-12T02:26:15.474Z,0
2018-11-12T02:29:43.801Z,0
2018-11-12T02:33:11.861Z,0
2018-11-12T02:36:39.729Z,0
2018-11-12T02:40:08.686Z,0
2018-11-12T02:43:36.639Z,0
2018-11-12T02:47:04.606Z,0
2018-11-12T02:50:32.574Z,0
2018-11-12T02:54:00.529Z,0
2018-11-12T02:57:29.556Z,0
2018-11-12T03:00:57.451Z,0
2018-11-12T03:04:25.419Z,0
2018-11-12T03:07:53.376Z,0
2018-11-12T03:11:21.352Z,0
2018-11-12T03:14:49.413Z,0
2018-11-12T03:18:17.365Z,0
2018-11-12T03:21:45.336Z,0
2018-11-12T03:25:13.520Z,0
2018-11-12T03:28:42.440Z,0
2018-11-12T03:32:10.403Z,0
2018-11-12T03:35:38.380Z,0
2018-11-12T03:39:06.334Z,0
2018-11-12T03:42:34.299Z,0
2018-11-12T03:46:02.273Z,0
2018-11-12T03:49:30.231Z,0
2018-11-12T03:53:05.214Z,0
2018-11-12T03:56:33.176Z,0
2018-11-12T04:00:02.167Z,0
2018-11-12T04:03:30.086Z,0
2018-11-12T04:06:58.054Z,0
2018-11-12T04:10:26.034Z,0
2018-11-12T04:13:53.991Z,0
2018-11-12T04:17:21.957Z,0
2018-11-12T04:20:49.932Z,0
2018-11-12T04:24:17.876Z,0
2018-11-12T04:27:45.847Z,0
2018-11-12T04:31:13.817Z,0
2018-11-12T04:34:41.770Z,0
2018-11-12T04:38:09.738Z,0
2018-11-12T04:41:37.714Z,0
2018-11-12T04:45:05.661Z,0
2018-11-12T04:48:33.640Z,0
2018-11-12T04:52:01.654Z,0
2018-11-12T04:55:31.602Z,0
2018-11-12T04:58:59.540Z,0
2018-11-12T05:02:28.492Z,0
2018-11-12T05:05:56.464Z,0
2018-11-12T05:09:24.413Z,0
2018-11-12T05:12:52.387Z,0
2018-11-12T05:16:21.343Z,0
2018-11-12T05:19:49.311Z,0
2018-11-12T05:23:18.260Z,0
2018-11-12T05:26:46.227Z,0
2018-11-12T05:30:14.208Z,0
2018-11-12T05:33:42.163Z,0
2018-11-12T05:37:11.120Z,0
2018-11-12T05:40:39.095Z,0
2018-11-12T05:44:07.045Z,0
2018-11-12T05:47:35.010Z,0
2018-11-12T05:51:02.979Z,1
2018-11-12T05:54:30.941Z,1
2018-11-12T05:57:58.904Z,2
2018-11-12T06:01:26.878Z,3
2018-11-12T06:04:54.891Z,5
2018-11-12T06:08:22.795Z,7
2018-11-12T06:11:50.755Z,11
2018-11-12T06:15:18.720Z,17
2018-11-12T06:18:46.668Z,31
2018-11-12T06:22:15.631Z,52
2018-11-12T06:25:43.596Z,74
2018-11-12T06:29:11.558Z,86
2018-11-12T06:32:40.531Z,97
2018-11-12T06:36:08.502Z,113
2018-11-12T06:39:36.465Z,108
2018-11-12T06:43:04.497Z,139
2018-11-12T06:46:32.386Z,185
2018-11-12T06:50:00.356Z,222
2018-11-12T06:53:28.438Z,250
2018-11-12T06:56:56.288Z,416
2018-11-12T07:00:24.245Z,501
2018-11-12T07:03:52.383Z,513
2018-11-12T07:07:20.347Z,645
2018-11-12T07:10:48.322Z,791
2018-11-12T07:14:16.401Z,889
2018-11-12T07:17:44.363Z,936
2018-11-12T07:21:13.318Z,940
2018-11-12T07:24:41.303Z,1274
2018-11-12T07:28:09.253Z,1507
2018-11-12T07:31:37.232Z,1675
2018-11-12T07:35:05.197Z,1278
2018-11-12T07:38:33.151Z,837
2018-11-12T07:42:01.156Z,824
2018-11-12T07:45:30.082Z,959
2018-11-12T07:48:58.051Z,1120
2018-11-12T07:52:26.013Z,1091
2018-11-12T07:55:53.983Z,1307
2018-11-12T07:59:21.944Z,1503
2018-11-12T08:02:49.959Z,1276
2018-11-12T08:06:18.068Z,1529
2018-11-12T08:09:46.148Z,1239
2018-11-12T08:13:14.014Z,1612
2018-11-12T08:16:41.981Z,1720
2018-11-12T08:20:09.937Z,1844
2018-11-12T08:23:37.914Z,1918
2018-11-12T08:27:06.875Z,1207
2018-11-12T08:30:34.847Z,1717
2018-11-12T08:34:02.802Z,1447
2018-11-12T08:37:30.781Z,1309
2018-11-12T08:40:58.897Z,1171
2018-11-12T08:44:26.705Z,1533
2018-11-12T08:47:54.672Z,1759
2018-11-12T08:51:22.643Z,1168
2018-11-12T08:54:50.617Z,1133
2018-11-12T08:58:19.274Z,1170
2018-11-12T09:01:47.531Z,1115
2018-11-12T09:05:15.484Z,1480
2018-11-12T09:08:43.445Z,1627
2018-11-12T09:12:11.422Z,1910
2018-11-12T09:15:40.465Z,1905
2018-11-12T09:19:08.338Z,2257
2018-11-12T09:22:36.307Z,2487
2018-11-12T09:26:04.271Z,2195
2018-11-12T09:29:32.378Z,2223
2018-11-12T09:33:01.189Z,2071
2018-11-12T09:36:29.204Z,1484
2018-11-12T09:43:25.092Z,1897
2018-11-12T09:46:53.067Z,1976
2018-11-12T09:50:21.042Z,1430
2018-11-12T09:53:49.152Z,1081
2018-11-12T09:57:16.979Z,1071
2018-11-12T10:00:45.277Z,1137
2018-11-12T10:04:14.572Z,1083
2018-11-12T10:07:45.701Z,997
2018-11-12T10:11:14.901Z,922
2018-11-12T10:14:46.059Z,960
2018-11-12T10:21:40.652Z,781
2018-11-12T10:25:08.599Z,823
2018-11-12T10:28:36.570Z,748
2018-11-12T10:32:05.533Z,1110
2018-11-12T10:35:33.495Z,1689
2018-11-12T10:39:01.453Z,965
2018-11-12T10:42:29.433Z,672
2018-11-12T10:45:57.396Z,1246
2018-11-12T10:49:25.350Z,1402
2018-11-12T10:52:53.325Z,1206
2018-11-12T10:56:21.293Z,1751
2018-11-12T10:59:49.376Z,1363
2018-11-12T11:03:17.210Z,711
2018-11-12T11:06:45.179Z,902
2018-11-12T11:10:13.146Z,1073
2018-11-12T11:13:41.154Z,1112
2018-11-12T11:17:10.067Z,2134
2018-11-12T11:20:38.060Z,802
2018-11-12T11:24:05.995Z,725
2018-11-12T11:27:33.976Z,1610
2018-11-12T11:31:03.001Z,1252
2018-11-12T11:34:31.719Z,1515
2018-11-12T11:38:00.573Z,1271
2018-11-12T11:41:28.553Z,857
2018-11-12T11:44:56.500Z,841
2018-11-12T11:48:24.469Z,715
2018-11-12T11:51:53.432Z,766
2018-11-12T11:55:21.387Z,860
2018-11-12T11:58:49.361Z,702
2018-11-12T12:02:17.426Z,777
2018-11-12T12:05:45.286Z,889
2018-11-12T12:09:13.312Z,1029
2018-11-12T12:12:41.230Z,927
2018-11-12T12:16:10.188Z,1021
2018-11-12T12:19:38.155Z,866
2018-11-12T12:23:06.115Z,685
2018-11-12T12:26:35.074Z,574
2018-11-12T12:30:03.023Z,743
2018-11-12T12:33:31.008Z,742
2018-11-12T12:36:58.992Z,625
2018-11-12T12:40:26.960Z,632
2018-11-12T12:43:54.911Z,655
2018-11-12T12:47:22.894Z,679
2018-11-12T12:50:50.865Z,976
2018-11-12T12:54:19.632Z,944
2018-11-12T12:57:50.612Z,1094
2018-11-12T13:01:19.669Z,1341
2018-11-12T13:04:48.632Z,946
2018-11-12T13:08:17.431Z,898
2018-11-12T13:11:46.510Z,1083
2018-11-12T13:15:15.572Z,1797
2018-11-12T13:18:44.688Z,2011
2018-11-12T13:22:18.983Z,1218
2018-11-12T13:25:49.231Z,1387
2018-11-12T13:29:17.190Z,1354
2018-11-12T13:32:45.152Z,2146
2018-11-12T13:36:13.130Z,2407
2018-11-12T13:39:41.769Z,4786
2018-11-12T13:43:11.619Z,5939
2018-11-12T13:46:39.716Z,5243
2018-11-12T13:50:07.632Z,4999
2018-11-12T13:53:38.465Z,2435
2018-11-12T13:57:06.456Z,1756
2018-11-12T14:00:34.549Z,1093
2018-11-12T14:04:03.602Z,1523
2018-11-12T14:07:32.411Z,1465
2018-11-12T14:11:00.510Z,1128
2018-11-12T14:14:30.172Z,1194
2018-11-12T14:18:01.245Z,1238
2018-11-12T14:21:38.695Z,1173
2018-11-12T14:25:07.601Z,819
2018-11-12T14:28:37.654Z,581
2018-11-12T14:32:05.491Z,522
2018-11-12T14:35:39.469Z,502
2018-11-12T14:39:11.441Z,505
2018-11-12T14:42:43.113Z,569
2018-11-12T14:46:14.258Z,701
2018-11-12T14:49:43.583Z,786
2018-11-12T14:53:12.204Z,406
2018-11-12T14:56:40.386Z,297
2018-11-12T15:00:08.448Z,264
2018-11-12T15:03:36.727Z,213
2018-11-12T15:07:14.459Z,155
2018-11-12T15:10:44.229Z,123
2018-11-12T15:14:20.533Z,95
2018-11-12T15:17:49.888Z,66
2018-11-12T15:21:26.086Z,47
2018-11-12T15:24:55.327Z,31
2018-11-12T15:28:30.442Z,17
2018-11-12T15:31:59.515Z,11
2018-11-12T15:35:27.677Z,7
2018-11-12T15:38:56.865Z,5
2018-11-12T15:42:24.867Z,4
2018-11-12T15:45:52.902Z,3
2018-11-12T15:49:21.996Z,1
2018-11-12T15:52:49.983Z,0
2018-11-12T15:56:17.948Z,0
2018-11-12T15:59:45.918Z,0
2018-11-12T16:03:13.866Z,0
2018-11-12T16:06:41.953Z,0
2018-11-12T16:10:09.804Z,0
2018-11-12T16:13:38.744Z,0
2018-11-12T16:17:06.716Z,0
2018-11-12T16:20:34.693Z,0
2018-11-12T16:24:02.645Z,0
2018-11-12T16:27:30.611Z,0
2018-11-12T16:30:58.595Z,0
2018-11-12T16:34:26.539Z,0
2018-11-12T16:37:55.498Z,0
2018-11-12T16:41:23.464Z,0
2018-11-12T16:44:51.422Z,0
2018-11-12T16:48:19.486Z,0
2018-11-12T16:51:50.183Z,0
2018-11-12T16:55:18.155Z,0
2018-11-12T16:58:47.106Z,0
2018-11-12T17:02:15.079Z,0
2018-11-12T17:05:43.039Z,0
2018-11-12T17:09:11.024Z,0
2018-11-12T17:12:39.012Z,0
2018-11-12T17:16:06.988Z,0
2018-11-12T17:19:34.938Z,0
2018-11-12T17:23:04.029Z,0
2018-11-12T17:26:31.977Z,0
2018-11-12T17:29:59.934Z,0
2018-11-12T17:33:27.910Z,0
2018-11-12T17:36:55.909Z,0
2018-11-12T17:40:23.927Z,0
2018-11-12T17:43:51.878Z,0
2018-11-12T17:47:19.848Z,0
2018-11-12T17:50:48.065Z,0
2018-11-12T17:54:16.048Z,0
2018-11-12T17:57:43.986Z,0
2018-11-12T18:01:11.954Z,0
2018-11-12T18:04:39.925Z,0
2018-11-12T18:08:08.039Z,0
2018-11-12T18:11:35.859Z,0
2018-11-12T18:15:03.843Z,0
2018-11-12T18:18:31.812Z,0
2018-11-12T18:21:59.802Z,0
2018-11-12T18:25:27.772Z,0
2018-11-12T18:28:55.729Z,0
2018-11-12T18:32:24.694Z,0
2018-11-12T18:35:52.665Z,0
2018-11-12T18:39:20.654Z,0
2018-11-12T18:42:48.617Z,0
2018-11-12T18:46:16.589Z,0
2018-11-12T18:49:44.545Z,0
2018-11-12T18:53:13.536Z,0
2018-11-12T18:56:41.638Z,0
2018-11-12T19:00:09.591Z,0
2018-11-12T19:03:37.558Z,0
2018-11-12T19:07:05.530Z,0
2018-11-12T19:10:33.510Z,0
2018-11-12T19:14:02.475Z,0
2018-11-12T19:17:31.149Z,0
2018-11-12T19:20:59.126Z,0
2018-11-12T19:24:27.074Z,0
2018-11-12T19:27:56.048Z,0
2018-11-12T19:31:24.019Z,0
2018-11-12T19:34:51.979Z,0
2018-11-12T19:38:19.933Z,1
2018-11-12T19:41:48.891Z,0
2018-11-12T19:45:22.126Z,0
2018-11-12T19:50:07.504Z,0
2018-11-12T19:53:36.586Z,0
2018-11-12T19:57:04.554Z,0
2018-11-12T20:00:32.657Z,0
2018-11-12T20:04:01.355Z,0
2018-11-12T20:07:29.368Z,0
2018-11-12T20:10:58.229Z,0
2018-11-12T20:14:27.207Z,0
2018-11-12T20:17:55.271Z,0
2018-11-12T20:21:23.267Z,0
2018-11-12T20:24:52.132Z,0
2018-11-12T20:28:20.166Z,0
2018-11-12T20:31:48.119Z,0
2018-11-12T20:35:17.155Z,0
2018-11-12T20:38:45.347Z,0
2018-11-12T20:42:13.298Z,0
2018-11-12T20:45:42.292Z,0
2018-11-12T20:49:10.257Z,0
2018-11-12T20:52:38.233Z,0
2018-11-12T20:56:06.211Z,0
2018-11-12T20:59:34.140Z,0
2018-11-12T21:03:02.196Z,0
2018-11-12T21:06:30.159Z,0
2018-11-12T21:09:59.114Z,0
2018-11-12T21:13:27.089Z,0
